createdAt,value
2023-04-15T00:00:10.107Z,6.20
2023-04-15T00:00:52.341Z,6.10
2023-04-15T00:01:37.091Z,6.40
2023-04-15T00:02:22.473Z,6.10
2023-04-15T00:03:05.787Z,6.30
2023-04-15T00:03:48.276Z,6.50
2023-04-15T00:04:31.732Z,6.10
2023-04-15T00:05:13.696Z,6.40
2023-04-15T00:05:55.510Z,6.40
2023-04-15T00:06:38.217Z,6.40
2023-04-15T00:07:22.098Z,6.30
2023-04-15T00:08:04.034Z,6.40
2023-04-15T00:08:49.153Z,6.30
2023-04-15T00:09:31.512Z,6.40
2023-04-15T00:10:14.466Z,5.70
2023-04-15T00:10:56.512Z,6.30
2023-04-15T00:11:38.546Z,6.20
2023-04-15T00:12:20.365Z,6.00
2023-04-15T00:13:03.108Z,6.20
2023-04-15T00:13:45.694Z,6.30
2023-04-15T00:14:28.173Z,6.20
2023-04-15T00:15:10.467Z,6.00
2023-04-15T00:15:52.299Z,6.10
2023-04-15T00:16:34.131Z,6.20
2023-04-15T00:17:19.272Z,6.20
2023-04-15T00:18:01.402Z,6.00
2023-04-15T00:18:43.274Z,6.10
2023-04-15T00:19:25.435Z,6.00
2023-04-15T00:20:07.672Z,6.20
2023-04-15T00:20:49.558Z,6.10
2023-04-15T00:21:31.595Z,6.20
2023-04-15T00:22:13.768Z,6.20
2023-04-15T00:22:55.539Z,6.30
2023-04-15T00:23:37.518Z,6.00
2023-04-15T00:24:19.485Z,6.20
2023-04-15T00:25:01.332Z,6.30
2023-04-15T00:25:43.332Z,6.10
2023-04-15T00:26:25.260Z,6.40
2023-04-15T00:27:07.044Z,6.00
2023-04-15T00:27:49.003Z,6.10
2023-04-15T00:28:31.286Z,6.00
2023-04-15T00:29:13.596Z,6.00
2023-04-15T00:29:55.457Z,6.10
2023-04-15T00:30:37.436Z,6.00
2023-04-15T00:31:19.438Z,6.10
2023-04-15T00:32:01.379Z,6.00
2023-04-15T00:32:43.429Z,6.20
2023-04-15T00:33:25.519Z,5.80
2023-04-15T00:34:07.364Z,5.90
2023-04-15T00:34:49.824Z,6.00
2023-04-15T00:35:36.375Z,5.90
2023-04-15T00:36:18.299Z,6.10
2023-04-15T00:37:00.610Z,6.00
2023-04-15T00:37:43.654Z,5.80
2023-04-15T00:38:27.374Z,6.10
2023-04-15T00:39:09.202Z,6.10
2023-04-15T00:39:51.410Z,6.10
2023-04-15T00:40:33.529Z,6.00
2023-04-15T00:41:15.488Z,6.10
2023-04-15T00:41:58.406Z,6.20
2023-04-15T00:42:42.600Z,6.10
2023-04-15T00:43:25.921Z,6.00
2023-04-15T00:44:08.481Z,5.90
2023-04-15T00:44:52.349Z,6.10
2023-04-15T00:45:34.333Z,5.90
2023-04-15T00:46:17.738Z,6.00
2023-04-15T00:47:00.947Z,5.90
2023-04-15T00:47:43.903Z,5.80
2023-04-15T00:48:27.177Z,5.90
2023-04-15T00:49:09.161Z,5.90
2023-04-15T00:49:51.409Z,5.70
2023-04-15T00:50:33.648Z,5.90
2023-04-15T00:51:16.180Z,5.90
2023-04-15T00:51:58.442Z,5.90
2023-04-15T00:52:41.002Z,5.90
2023-04-15T00:53:22.915Z,6.00
2023-04-15T00:54:05.995Z,6.20
2023-04-15T00:54:47.912Z,5.90
2023-04-15T00:55:29.817Z,5.90
2023-04-15T00:56:14.623Z,6.00
2023-04-15T00:56:56.703Z,5.80
2023-04-15T00:57:39.793Z,5.90
2023-04-15T00:58:21.939Z,5.70
2023-04-15T00:59:04.848Z,6.00
2023-04-15T00:59:49.589Z,5.90
2023-04-15T01:00:31.564Z,5.60
2023-04-15T01:01:13.564Z,5.70
2023-04-15T01:01:55.826Z,5.70
2023-04-15T01:02:39.129Z,5.80
2023-04-15T01:03:21.718Z,5.70
2023-04-15T01:04:04.349Z,5.70
2023-04-15T01:04:49.762Z,5.70
2023-04-15T01:05:32.026Z,5.80
2023-04-15T01:06:14.699Z,5.70
2023-04-15T01:06:56.833Z,5.20
2023-04-15T01:07:38.916Z,5.70
2023-04-15T01:08:20.741Z,5.80
2023-04-15T01:09:05.218Z,5.80
2023-04-15T01:09:48.407Z,5.80
2023-04-15T01:10:31.844Z,5.60
2023-04-15T01:11:14.787Z,5.70
2023-04-15T01:11:57.168Z,5.70
2023-04-15T01:12:39.605Z,5.70
2023-04-15T01:13:23.885Z,5.60
2023-04-15T01:14:05.949Z,5.70
2023-04-15T01:14:47.851Z,5.60
2023-04-15T01:15:29.773Z,5.80
2023-04-15T01:16:13.112Z,5.50
2023-04-15T01:16:55.012Z,5.50
2023-04-15T01:17:38.152Z,5.50
2023-04-15T01:18:21.049Z,5.70
2023-04-15T01:19:03.146Z,5.60
2023-04-15T01:19:47.315Z,5.60
2023-04-15T01:20:29.945Z,5.60
2023-04-15T01:21:12.616Z,5.60
2023-04-15T01:21:55.051Z,5.50
2023-04-15T01:22:39.385Z,5.30
2023-04-15T01:23:25.524Z,5.40
2023-04-15T01:24:11.672Z,5.40
2023-04-15T01:25:09.753Z,5.50
2023-04-15T01:25:53.511Z,5.30
2023-04-15T01:26:35.988Z,5.20
2023-04-15T01:27:17.894Z,5.50
2023-04-15T01:28:00.678Z,5.50
2023-04-15T01:28:42.722Z,5.40
2023-04-15T01:29:24.591Z,5.30
2023-04-15T01:30:07.982Z,5.40
2023-04-15T01:30:49.970Z,5.40
2023-04-15T01:31:32.549Z,5.50
2023-04-15T01:32:14.403Z,5.40
2023-04-15T01:32:56.654Z,5.50
2023-04-15T01:33:39.594Z,5.50
2023-04-15T01:34:24.614Z,5.40
2023-04-15T01:35:07.669Z,5.40
2023-04-15T01:35:49.527Z,5.40
2023-04-15T01:36:31.626Z,5.30
2023-04-15T01:37:13.674Z,5.40
2023-04-15T01:38:02.628Z,5.40
2023-04-15T01:38:44.487Z,5.40
2023-04-15T01:39:26.640Z,5.50
2023-04-15T01:40:09.248Z,5.30
2023-04-15T01:40:51.030Z,5.20
2023-04-15T01:41:32.902Z,5.30
2023-04-15T01:42:14.885Z,5.40
2023-04-15T01:42:56.804Z,5.30
2023-04-15T01:43:38.611Z,5.10
2023-04-15T01:44:20.357Z,5.50
2023-04-15T01:45:02.770Z,5.40
2023-04-15T01:45:44.553Z,5.20
2023-04-15T01:46:26.913Z,5.40
2023-04-15T01:47:08.729Z,5.30
2023-04-15T01:47:52.671Z,5.20
2023-04-15T01:48:34.635Z,5.40
2023-04-15T01:49:17.062Z,5.20
2023-04-15T01:49:59.131Z,5.30
2023-04-15T01:50:40.940Z,5.10
2023-04-15T01:51:23.243Z,5.30
2023-04-15T01:52:05.160Z,5.20
2023-04-15T01:52:48.682Z,5.20
2023-04-15T01:53:32.581Z,5.30
2023-04-15T01:54:14.387Z,5.30
2023-04-15T01:54:58.810Z,4.90
2023-04-15T01:55:41.162Z,5.30
2023-04-15T01:56:26.712Z,5.20
2023-04-15T01:57:11.704Z,5.30
2023-04-15T01:57:53.954Z,5.30
2023-04-15T01:58:35.956Z,5.30
2023-04-15T01:59:18.013Z,5.20
2023-04-15T01:59:59.916Z,5.20
2023-04-15T02:00:41.810Z,5.30
2023-04-15T02:01:24.187Z,5.20
2023-04-15T02:02:06.532Z,5.20
2023-04-15T02:02:48.501Z,5.10
2023-04-15T02:03:31.038Z,5.30
2023-04-15T02:04:17.327Z,5.10
2023-04-15T02:05:02.155Z,5.10
2023-04-15T02:05:46.838Z,5.40
2023-04-15T02:06:28.698Z,6.60
2023-04-15T02:07:10.952Z,5.10
2023-04-15T02:07:53.887Z,5.20
2023-04-15T02:08:36.074Z,5.20
2023-04-15T02:09:19.985Z,5.20
2023-04-15T02:10:01.853Z,5.20
2023-04-15T02:10:44.158Z,5.10
2023-04-15T02:11:26.096Z,5.10
2023-04-15T02:12:08.444Z,5.10
2023-04-15T02:12:50.331Z,5.10
2023-04-15T02:13:32.235Z,5.10
2023-04-15T02:14:14.472Z,5.10
2023-04-15T02:14:56.747Z,4.60
2023-04-15T02:15:38.786Z,5.00
2023-04-15T02:16:21.060Z,4.80
2023-04-15T02:17:07.377Z,4.90
2023-04-15T02:17:52.586Z,5.10
2023-04-15T02:18:36.800Z,5.00
2023-04-15T02:19:18.660Z,5.10
2023-04-15T02:20:00.528Z,4.60
2023-04-15T02:20:43.789Z,4.90
2023-04-15T02:21:27.029Z,5.00
2023-04-15T02:22:09.438Z,5.00
2023-04-15T02:22:52.243Z,5.00
2023-04-15T02:23:34.243Z,5.10
2023-04-15T02:24:16.297Z,5.00
2023-04-15T02:25:00.147Z,4.90
2023-04-15T02:25:41.894Z,5.00
2023-04-15T02:26:25.372Z,5.00
2023-04-15T02:27:07.242Z,5.00
2023-04-15T02:27:49.103Z,4.90
2023-04-15T02:28:31.167Z,4.70
2023-04-15T02:29:15.789Z,4.90
2023-04-15T02:30:00.037Z,4.80
2023-04-15T02:30:41.899Z,4.90
2023-04-15T02:31:24.200Z,5.00
2023-04-15T02:32:06.554Z,4.80
2023-04-15T02:32:48.631Z,4.80
2023-04-15T02:33:31.124Z,5.00
2023-04-15T02:34:14.374Z,4.80
2023-04-15T02:34:56.382Z,4.80
2023-04-15T02:35:42.051Z,4.70
2023-04-15T02:36:24.344Z,5.00
2023-04-15T02:37:06.874Z,5.00
2023-04-15T02:37:49.233Z,5.00
2023-04-15T02:38:31.995Z,5.00
2023-04-15T02:39:16.767Z,4.80
2023-04-15T02:39:58.677Z,4.80
2023-04-15T02:40:40.648Z,4.90
2023-04-15T02:41:27.183Z,4.90
2023-04-15T02:42:09.352Z,4.80
2023-04-15T02:42:51.472Z,4.70
2023-04-15T02:43:33.331Z,4.80
2023-04-15T02:44:15.544Z,4.80
2023-04-15T02:44:58.305Z,4.80
2023-04-15T02:45:40.508Z,4.80
2023-04-15T02:46:25.586Z,4.90
2023-04-15T02:47:07.573Z,4.80
2023-04-15T02:47:49.351Z,4.80
2023-04-15T02:48:31.918Z,4.70
2023-04-15T02:49:13.716Z,4.60
2023-04-15T02:49:55.595Z,4.90
2023-04-15T02:50:39.883Z,4.70
2023-04-15T02:51:22.884Z,4.80
2023-04-15T02:52:07.145Z,4.80
2023-04-15T02:52:49.293Z,4.90
2023-04-15T02:53:31.426Z,4.70
2023-04-15T02:54:15.600Z,4.70
2023-04-15T02:55:00.682Z,4.70
2023-04-15T02:55:44.971Z,4.50
2023-04-15T02:56:27.642Z,4.60
2023-04-15T02:57:11.662Z,4.70
2023-04-15T02:57:53.475Z,4.70
2023-04-15T02:58:36.573Z,4.60
2023-04-15T02:59:18.344Z,4.60
2023-04-15T03:00:02.464Z,4.70
2023-04-15T03:00:44.592Z,4.70
2023-04-15T03:01:27.273Z,4.80
2023-04-15T03:02:09.573Z,4.80
2023-04-15T03:02:56.570Z,4.90
2023-04-15T03:03:38.627Z,4.70
2023-04-15T03:04:20.960Z,4.70
2023-04-15T03:05:05.644Z,4.80
2023-04-15T03:05:47.583Z,4.30
2023-04-15T03:06:32.302Z,4.70
2023-04-15T03:07:14.590Z,4.60
2023-04-15T03:07:57.617Z,4.70
2023-04-15T03:08:42.118Z,4.60
2023-04-15T03:09:23.958Z,4.60
2023-04-15T03:10:06.518Z,4.60
2023-04-15T03:11:36.463Z,4.60
2023-04-15T03:12:18.445Z,4.60
2023-04-15T03:13:01.394Z,4.50
2023-04-15T03:13:45.482Z,4.60
2023-04-15T03:14:27.325Z,4.60
2023-04-15T03:15:12.214Z,4.60
2023-04-15T03:15:54.573Z,4.60
2023-04-15T03:16:36.537Z,4.60
2023-04-15T03:17:21.085Z,4.60
2023-04-15T03:18:03.005Z,4.70
2023-04-15T03:18:47.428Z,4.70
2023-04-15T03:19:29.535Z,4.60
2023-04-15T03:20:11.550Z,4.50
2023-04-15T03:20:56.103Z,4.60
2023-04-15T03:21:37.969Z,4.60
2023-04-15T03:22:22.419Z,4.50
2023-04-15T03:23:04.795Z,4.60
2023-04-15T03:23:48.616Z,4.60
2023-04-15T03:24:32.706Z,4.60
2023-04-15T03:25:17.210Z,4.60
2023-04-15T03:26:02.906Z,4.30
2023-04-15T03:26:47.435Z,4.60
2023-04-15T03:27:29.745Z,4.90
2023-04-15T03:28:12.302Z,4.50
2023-04-15T03:28:54.642Z,4.50
2023-04-15T03:29:36.750Z,4.50
2023-04-15T03:30:18.527Z,4.50
2023-04-15T03:31:01.065Z,4.60
2023-04-15T03:31:42.986Z,4.50
2023-04-15T03:32:27.438Z,4.70
2023-04-15T03:33:09.243Z,4.50
2023-04-15T03:33:51.482Z,4.50
2023-04-15T03:34:35.347Z,4.50
2023-04-15T03:35:17.362Z,4.50
2023-04-15T03:35:59.591Z,4.40
2023-04-15T03:36:41.802Z,4.50
2023-04-15T03:37:23.594Z,4.50
2023-04-15T03:38:07.738Z,4.50
2023-04-15T03:38:50.178Z,4.50
2023-04-15T03:39:32.359Z,4.60
2023-04-15T03:40:14.190Z,4.50
2023-04-15T03:40:55.928Z,4.60
2023-04-15T03:41:37.814Z,4.50
2023-04-15T03:42:20.044Z,4.50
2023-04-15T03:43:02.380Z,4.60
2023-04-15T03:43:44.201Z,4.60
2023-04-15T03:44:28.978Z,4.50
2023-04-15T03:45:11.538Z,4.40
2023-04-15T03:45:56.035Z,4.50
2023-04-15T03:46:37.949Z,4.40
2023-04-15T03:47:20.142Z,4.50
2023-04-15T03:48:48.213Z,4.50
2023-04-15T03:49:32.586Z,4.40
2023-04-15T03:50:14.772Z,4.40
2023-04-15T03:50:56.739Z,4.40
2023-04-15T03:51:40.633Z,4.40
2023-04-15T03:52:22.472Z,4.60
2023-04-15T03:53:04.248Z,4.40
2023-04-15T03:53:46.061Z,4.50
2023-04-15T03:54:27.923Z,4.50
2023-04-15T03:55:12.623Z,4.40
2023-04-15T03:55:54.440Z,4.50
2023-04-15T03:56:36.719Z,4.40
2023-04-15T03:57:20.782Z,4.50
2023-04-15T03:58:02.549Z,4.40
2023-04-15T03:58:44.859Z,4.40
2023-04-15T03:59:27.123Z,4.40
2023-04-15T04:00:12.685Z,4.30
2023-04-15T04:00:55.070Z,4.40
2023-04-15T04:01:37.317Z,4.30
2023-04-15T04:02:19.265Z,4.30
2023-04-15T04:03:01.845Z,4.40
2023-04-15T04:03:43.865Z,4.40
2023-04-15T04:04:26.116Z,4.40
2023-04-15T04:05:08.323Z,4.20
2023-04-15T04:05:50.991Z,4.20
2023-04-15T04:06:33.021Z,4.30
2023-04-15T04:07:18.023Z,4.30
2023-04-15T04:08:00.655Z,4.20
2023-04-15T04:08:42.613Z,4.40
2023-04-15T04:09:28.142Z,4.30
2023-04-15T04:10:12.863Z,4.30
2023-04-15T04:10:54.904Z,4.20
2023-04-15T04:11:37.700Z,4.40
2023-04-15T04:12:19.861Z,4.40
2023-04-15T04:13:02.082Z,4.50
2023-04-15T04:13:43.879Z,4.40
2023-04-15T04:14:29.712Z,4.40
2023-04-15T04:15:12.462Z,4.40
2023-04-15T04:15:54.405Z,4.40
2023-04-15T04:16:36.751Z,4.40
2023-04-15T04:17:18.624Z,4.20
2023-04-15T04:18:00.846Z,4.20
2023-04-15T04:18:42.643Z,4.30
2023-04-15T04:19:24.899Z,4.40
2023-04-15T04:20:07.593Z,4.20
2023-04-15T04:20:49.887Z,4.20
2023-04-15T04:21:34.177Z,4.30
2023-04-15T04:22:16.005Z,4.50
2023-04-15T04:22:58.144Z,4.40
2023-04-15T04:23:42.367Z,4.30
2023-04-15T04:24:24.168Z,4.40
2023-04-15T04:25:07.186Z,4.40
2023-04-15T04:25:49.061Z,4.40
2023-04-15T04:26:31.168Z,4.30
2023-04-15T04:27:13.106Z,4.40
2023-04-15T04:27:55.301Z,4.40
2023-04-15T04:28:37.480Z,4.40
2023-04-15T04:29:19.762Z,4.30
2023-04-15T04:30:02.088Z,4.40
2023-04-15T04:30:43.950Z,4.30
2023-04-15T04:31:25.806Z,4.60
2023-04-15T04:32:07.766Z,4.40
2023-04-15T04:32:51.261Z,4.30
2023-04-15T04:33:35.699Z,4.30
2023-04-15T04:34:17.648Z,4.30
2023-04-15T04:34:59.773Z,4.40
2023-04-15T04:35:41.548Z,4.30
2023-04-15T04:36:23.863Z,4.30
2023-04-15T04:37:08.227Z,4.20
2023-04-15T04:37:53.461Z,4.00
2023-04-15T04:38:35.384Z,4.30
2023-04-15T04:39:17.549Z,4.30
2023-04-15T04:39:59.541Z,4.40
2023-04-15T04:41:24.042Z,4.40
2023-04-15T04:42:08.157Z,4.40
2023-04-15T04:42:50.135Z,4.30
2023-04-15T04:43:34.808Z,4.20
2023-04-15T04:44:17.110Z,4.40
2023-04-15T04:44:59.070Z,4.40
2023-04-15T04:45:41.226Z,4.30
2023-04-15T04:46:23.833Z,4.30
2023-04-15T04:47:09.862Z,4.40
2023-04-15T04:47:52.191Z,4.30
2023-04-15T04:48:34.391Z,4.30
2023-04-15T04:49:16.241Z,4.40
2023-04-15T04:49:58.046Z,4.40
2023-04-15T04:50:40.011Z,4.40
2023-04-15T04:51:22.121Z,4.50
2023-04-15T04:52:04.490Z,4.30
2023-04-15T04:52:46.666Z,4.50
2023-04-15T04:53:28.510Z,4.30
2023-04-15T04:54:10.332Z,4.50
2023-04-15T04:54:52.453Z,4.40
2023-04-15T04:55:36.956Z,4.40
2023-04-15T04:56:19.109Z,4.30
2023-04-15T04:57:01.682Z,4.30
2023-04-15T04:57:43.931Z,4.30
2023-04-15T04:58:25.980Z,4.50
2023-04-15T04:59:09.870Z,4.40
2023-04-15T04:59:54.931Z,4.40
2023-04-15T05:00:37.984Z,4.40
2023-04-15T05:01:19.811Z,4.30
2023-04-15T05:02:02.247Z,4.50
2023-04-15T05:02:44.816Z,4.40
2023-04-15T05:03:27.554Z,4.40
2023-04-15T05:04:09.863Z,4.40
2023-04-15T05:04:54.401Z,4.30
2023-04-15T05:05:37.187Z,4.40
2023-04-15T05:06:19.158Z,4.40
2023-04-15T05:07:03.228Z,4.30
2023-04-15T05:08:29.659Z,4.30
2023-04-15T05:09:11.444Z,4.30
2023-04-15T05:09:53.301Z,4.40
2023-04-15T05:10:35.404Z,4.50
2023-04-15T05:11:19.792Z,4.30
2023-04-15T05:12:02.117Z,4.30
2023-04-15T05:12:44.570Z,4.30
2023-04-15T05:13:26.437Z,4.40
2023-04-15T05:14:08.204Z,4.40
2023-04-15T05:14:50.024Z,4.20
2023-04-15T05:15:35.401Z,4.30
2023-04-15T05:16:17.762Z,4.30
2023-04-15T05:16:59.781Z,4.40
2023-04-15T05:17:41.693Z,4.40
2023-04-15T05:18:23.711Z,4.40
2023-04-15T05:19:08.088Z,4.40
2023-04-15T05:19:49.897Z,4.30
2023-04-15T05:20:31.697Z,4.30
2023-04-15T05:21:13.707Z,4.40
2023-04-15T05:21:55.596Z,4.30
2023-04-15T05:22:40.049Z,4.50
2023-04-15T05:23:22.275Z,4.50
2023-04-15T05:24:04.558Z,4.50
2023-04-15T05:24:46.628Z,6.00
2023-04-15T05:25:28.407Z,4.50
2023-04-15T05:26:10.234Z,4.60
2023-04-15T05:26:52.382Z,3.30
2023-04-15T05:27:34.260Z,4.50
2023-04-15T05:28:58.764Z,4.50
2023-04-15T05:29:43.096Z,4.30
2023-04-15T05:30:24.899Z,4.50
2023-04-15T05:31:07.441Z,4.60
2023-04-15T05:31:49.805Z,4.50
2023-04-15T05:32:32.320Z,4.40
2023-04-15T05:33:14.992Z,4.60
2023-04-15T05:33:57.320Z,4.60
2023-04-15T05:34:39.118Z,4.60
2023-04-15T05:35:20.920Z,4.50
2023-04-15T05:36:05.259Z,4.60
2023-04-15T05:36:47.374Z,5.10
2023-04-15T05:38:11.340Z,4.60
2023-04-15T05:38:53.399Z,4.70
2023-04-15T05:39:35.180Z,4.80
2023-04-15T05:40:17.001Z,4.70
2023-04-15T05:40:59.315Z,4.90
2023-04-15T05:41:41.168Z,5.00
2023-04-15T05:42:25.080Z,4.80
2023-04-15T05:43:06.989Z,4.40
2023-04-15T05:43:49.390Z,4.70
2023-04-15T05:44:31.285Z,4.70
2023-04-15T05:45:13.711Z,4.70
2023-04-15T05:45:55.770Z,4.90
2023-04-15T05:46:40.285Z,4.90
2023-04-15T05:47:22.421Z,5.20
2023-04-15T05:48:04.344Z,5.00
2023-04-15T05:48:46.632Z,5.30
2023-04-15T05:49:28.498Z,5.00
2023-04-15T05:50:12.935Z,5.20
2023-04-15T05:50:55.005Z,5.30
2023-04-15T05:51:37.355Z,5.40
2023-04-15T05:52:19.372Z,5.50
2023-04-15T05:53:03.346Z,5.40
2023-04-15T05:53:46.161Z,5.50
2023-04-15T05:54:27.969Z,5.50
2023-04-15T05:55:10.196Z,5.30
2023-04-15T05:55:52.452Z,5.40
2023-04-15T05:56:34.373Z,5.50
2023-04-15T05:57:18.636Z,5.60
2023-04-15T05:58:00.481Z,5.80
2023-04-15T05:58:42.325Z,5.60
2023-04-15T05:59:24.386Z,5.50
2023-04-15T06:00:06.697Z,5.70
2023-04-15T06:00:48.498Z,5.60
2023-04-15T06:01:30.547Z,5.80
2023-04-15T06:02:13.448Z,5.80
2023-04-15T06:02:58.023Z,5.90
2023-04-15T06:03:40.434Z,5.80
2023-04-15T06:04:25.344Z,5.70
2023-04-15T06:05:11.828Z,6.10
2023-04-15T06:05:54.362Z,5.80
2023-04-15T06:06:38.724Z,5.90
2023-04-15T06:07:20.727Z,5.80
2023-04-15T06:08:05.716Z,6.20
2023-04-15T06:08:47.920Z,6.10
2023-04-15T06:09:30.777Z,5.80
2023-04-15T06:10:15.220Z,5.90
2023-04-15T06:10:58.398Z,6.30
2023-04-15T06:11:43.720Z,6.10
2023-04-15T06:12:25.524Z,6.30
2023-04-15T06:13:10.384Z,6.40
2023-04-15T06:13:52.565Z,6.30
2023-04-15T06:14:34.495Z,6.60
2023-04-15T06:15:17.171Z,6.40
2023-04-15T06:15:59.397Z,6.50
2023-04-15T06:16:43.393Z,6.30
2023-04-15T06:17:25.730Z,6.70
2023-04-15T06:18:07.973Z,6.40
2023-04-15T06:18:50.033Z,6.40
2023-04-15T06:19:32.519Z,6.50
2023-04-15T06:20:14.920Z,6.40
2023-04-15T06:20:57.686Z,6.60
2023-04-15T06:21:39.965Z,6.30
2023-04-15T06:23:07.561Z,6.40
2023-04-15T06:23:49.575Z,6.60
2023-04-15T06:24:35.432Z,6.50
2023-04-15T06:25:17.625Z,6.60
2023-04-15T06:25:59.553Z,6.50
2023-04-15T06:26:41.571Z,6.40
2023-04-15T06:27:23.739Z,6.70
2023-04-15T06:28:05.558Z,6.70
2023-04-15T06:28:47.652Z,6.50
2023-04-15T06:30:12.579Z,6.70
2023-04-15T06:30:55.642Z,6.90
2023-04-15T06:31:37.799Z,6.90
2023-04-15T06:32:19.977Z,7.00
2023-04-15T06:33:05.625Z,7.00
2023-04-15T06:33:47.692Z,6.80
2023-04-15T06:34:29.584Z,6.90
2023-04-15T06:35:11.692Z,7.00
2023-04-15T06:35:53.651Z,6.80
2023-04-15T06:36:35.545Z,7.10
2023-04-15T06:37:17.479Z,7.10
2023-04-15T06:37:59.562Z,6.90
2023-04-15T06:38:43.724Z,7.00
2023-04-15T06:39:25.653Z,7.00
2023-04-15T06:40:50.685Z,7.30
2023-04-15T06:41:32.675Z,7.30
2023-04-15T06:42:14.512Z,7.30
2023-04-15T06:42:58.647Z,7.30
2023-04-15T06:43:40.408Z,7.40
2023-04-15T06:44:22.736Z,7.50
2023-04-15T06:45:05.339Z,7.20
2023-04-15T06:45:47.796Z,7.60
2023-04-15T06:46:31.809Z,7.40
2023-04-15T06:47:14.788Z,7.50
2023-04-15T06:47:56.782Z,7.50
2023-04-15T06:48:38.949Z,7.50
2023-04-15T06:49:20.909Z,7.50
2023-04-15T06:50:04.000Z,7.70
2023-04-15T06:50:45.895Z,7.80
2023-04-15T06:51:27.985Z,7.70
2023-04-15T06:52:11.378Z,8.00
2023-04-15T06:52:54.739Z,7.70
2023-04-15T06:53:41.103Z,7.90
2023-04-15T06:54:23.465Z,7.80
2023-04-15T06:55:05.730Z,7.70
2023-04-15T06:55:47.874Z,7.80
2023-04-15T06:57:12.845Z,7.80
2023-04-15T06:57:54.738Z,8.00
2023-04-15T06:58:36.746Z,8.30
2023-04-15T06:59:19.085Z,8.00
2023-04-15T07:00:01.122Z,8.10
2023-04-15T07:00:43.331Z,8.00
2023-04-15T07:01:25.381Z,8.30
2023-04-15T07:02:12.834Z,8.00
2023-04-15T07:02:55.646Z,8.10
2023-04-15T07:03:37.815Z,8.40
2023-04-15T07:04:20.517Z,8.30
2023-04-15T07:05:02.778Z,8.20
2023-04-15T07:05:44.924Z,8.30
2023-04-15T07:06:27.653Z,8.20
2023-04-15T07:07:09.776Z,8.30
2023-04-15T07:07:53.968Z,8.30
2023-04-15T07:08:35.822Z,8.40
2023-04-15T07:09:18.170Z,8.50
2023-04-15T07:10:02.086Z,8.30
2023-04-15T07:10:43.951Z,8.20
2023-04-15T07:11:28.969Z,8.50
2023-04-15T07:12:13.879Z,8.80
2023-04-15T07:12:56.051Z,8.30
2023-04-15T07:13:40.715Z,8.60
2023-04-15T07:14:22.973Z,8.30
2023-04-15T07:15:05.432Z,8.30
2023-04-15T07:15:47.246Z,8.30
2023-04-15T07:16:30.087Z,8.60
2023-04-15T07:17:12.798Z,8.60
2023-04-15T07:17:54.828Z,8.70
2023-04-15T07:18:37.326Z,8.50
2023-04-15T07:19:19.408Z,8.80
2023-04-15T07:20:01.186Z,8.90
2023-04-15T07:20:43.742Z,8.70
2023-04-15T07:21:29.737Z,8.60
2023-04-15T07:22:11.684Z,8.70
2023-04-15T07:22:53.930Z,9.00
2023-04-15T07:23:38.481Z,8.80
2023-04-15T07:24:20.771Z,8.80
2023-04-15T07:25:04.632Z,8.70
2023-04-15T07:25:47.428Z,8.80
2023-04-15T07:26:29.528Z,8.60
2023-04-15T07:27:11.962Z,8.90
2023-04-15T07:27:54.324Z,9.00
2023-04-15T07:28:36.227Z,9.20
2023-04-15T07:29:18.007Z,8.90
2023-04-15T07:29:59.900Z,8.90
2023-04-15T07:30:42.113Z,10.70
2023-04-15T07:31:24.297Z,9.10
2023-04-15T07:32:06.357Z,9.10
2023-04-15T07:32:48.281Z,8.90
2023-04-15T07:33:30.170Z,9.20
2023-04-15T07:34:12.080Z,9.20
2023-04-15T07:34:53.893Z,9.20
2023-04-15T07:35:35.759Z,9.20
2023-04-15T07:36:19.633Z,9.20
2023-04-15T07:37:01.990Z,9.30
2023-04-15T07:37:43.978Z,9.50
2023-04-15T07:38:26.336Z,9.10
2023-04-15T07:39:08.281Z,9.80
2023-04-15T07:39:50.141Z,9.50
2023-04-15T07:40:32.476Z,9.70
2023-04-15T07:41:14.548Z,9.90
2023-04-15T07:41:56.492Z,10.00
2023-04-15T07:42:40.727Z,9.60
2023-04-15T07:43:23.161Z,9.80
2023-04-15T07:44:05.466Z,9.60
2023-04-15T07:44:49.970Z,9.50
2023-04-15T07:45:32.415Z,8.30
2023-04-15T07:46:14.831Z,9.80
2023-04-15T07:46:59.568Z,10.10
2023-04-15T07:47:42.165Z,10.00
2023-04-15T07:48:24.298Z,10.10
2023-04-15T07:49:06.127Z,9.90
2023-04-15T07:49:47.943Z,10.00
2023-04-15T07:50:29.781Z,10.10
2023-04-15T07:51:12.960Z,10.10
2023-04-15T07:51:55.073Z,10.40
2023-04-15T07:52:39.392Z,10.20
2023-04-15T07:53:21.291Z,10.20
2023-04-15T07:54:03.254Z,10.20
2023-04-15T07:54:47.835Z,10.30
2023-04-15T07:55:32.928Z,10.20
2023-04-15T07:56:14.735Z,10.30
2023-04-15T07:56:56.535Z,10.30
2023-04-15T07:57:38.621Z,10.40
2023-04-15T07:58:20.401Z,10.70
2023-04-15T07:59:04.728Z,10.50
2023-04-15T07:59:46.980Z,10.50
2023-04-15T08:00:29.406Z,10.60
2023-04-15T08:01:12.053Z,10.40
2023-04-15T08:01:54.389Z,10.40
2023-04-15T08:02:37.530Z,10.40
2023-04-15T08:03:24.750Z,10.30
2023-04-15T08:04:06.815Z,10.60
2023-04-15T08:04:48.813Z,10.70
2023-04-15T08:05:33.416Z,10.50
2023-04-15T08:06:15.252Z,10.50
2023-04-15T08:06:58.044Z,10.80
2023-04-15T08:07:40.361Z,10.60
2023-04-15T08:08:22.564Z,10.50
2023-04-15T08:09:04.811Z,10.90
2023-04-15T08:09:47.566Z,10.60
2023-04-15T08:10:33.075Z,11.00
2023-04-15T08:11:14.856Z,10.80
2023-04-15T08:11:57.139Z,11.00
2023-04-15T08:12:39.115Z,10.80
2023-04-15T08:13:21.125Z,11.10
2023-04-15T08:14:02.944Z,11.20
2023-04-15T08:14:44.845Z,11.30
2023-04-15T08:15:27.354Z,11.20
2023-04-15T08:16:21.366Z,11.10
2023-04-15T08:17:04.204Z,11.30
2023-04-15T08:17:46.736Z,11.30
2023-04-15T08:18:28.586Z,11.10
2023-04-15T08:19:10.466Z,11.30
2023-04-15T08:19:53.791Z,11.40
2023-04-15T08:20:38.364Z,11.40
2023-04-15T08:21:22.993Z,11.50
2023-04-15T08:22:05.241Z,11.30
2023-04-15T08:22:53.988Z,11.40
2023-04-15T08:23:38.557Z,11.40
2023-04-15T08:24:20.387Z,11.00
2023-04-15T08:25:03.510Z,11.40
2023-04-15T08:25:45.444Z,11.30
2023-04-15T08:26:27.380Z,11.40
2023-04-15T08:27:10.296Z,11.80
2023-04-15T08:27:52.375Z,11.70
2023-04-15T08:28:34.409Z,11.60
2023-04-15T08:29:16.293Z,11.30
2023-04-15T08:29:58.535Z,11.40
2023-04-15T08:30:40.676Z,11.50
2023-04-15T08:31:23.055Z,11.60
2023-04-15T08:32:05.400Z,11.40
2023-04-15T08:32:50.130Z,11.50
2023-04-15T08:33:32.384Z,11.10
2023-04-15T08:34:15.108Z,11.60
2023-04-15T08:34:57.205Z,11.70
2023-04-15T08:35:39.148Z,11.60
2023-04-15T08:36:21.213Z,11.70
2023-04-15T08:37:03.078Z,11.70
2023-04-15T08:37:44.860Z,11.40
2023-04-15T08:38:27.302Z,11.90
2023-04-15T08:39:09.174Z,11.70
2023-04-15T08:39:53.310Z,11.80
2023-04-15T08:40:44.203Z,12.10
2023-04-15T08:41:27.211Z,12.00
2023-04-15T08:42:59.236Z,12.20
2023-04-15T08:44:01.355Z,12.30
2023-04-15T08:44:44.757Z,12.10
2023-04-15T08:45:26.796Z,12.00
2023-04-15T08:46:13.072Z,12.00
2023-04-15T08:46:57.329Z,12.30
2023-04-15T08:47:40.430Z,12.10
2023-04-15T08:48:24.606Z,11.90
2023-04-15T08:49:10.331Z,11.80
2023-04-15T08:49:55.030Z,11.90
2023-04-15T08:50:36.859Z,12.00
2023-04-15T08:51:18.873Z,12.10
2023-04-15T08:52:01.501Z,11.80
2023-04-15T08:52:43.775Z,11.90
2023-04-15T08:53:26.441Z,11.80
2023-04-15T08:54:11.646Z,12.00
2023-04-15T08:54:59.143Z,12.00
2023-04-15T08:55:51.278Z,12.00
2023-04-15T08:56:33.407Z,12.00
2023-04-15T08:57:15.594Z,12.00
2023-04-15T08:57:58.249Z,12.10
2023-04-15T08:58:40.203Z,12.10
2023-04-15T08:59:22.591Z,12.10
2023-04-15T09:00:05.617Z,12.10
2023-04-15T09:00:48.862Z,12.20
2023-04-15T09:01:32.303Z,12.00
2023-04-15T09:02:14.310Z,12.00
2023-04-15T09:02:59.802Z,11.90
2023-04-15T09:03:45.350Z,12.10
2023-04-15T09:04:28.493Z,11.80
2023-04-15T09:05:10.431Z,12.20
2023-04-15T09:05:55.248Z,12.00
2023-04-15T09:06:37.445Z,13.10
2023-04-15T09:07:19.427Z,12.20
2023-04-15T09:08:02.362Z,11.80
2023-04-15T09:08:44.946Z,12.20
2023-04-15T09:09:30.056Z,12.30
2023-04-15T09:10:12.706Z,12.20
2023-04-15T09:10:55.129Z,12.30
2023-04-15T09:11:37.469Z,12.10
2023-04-15T09:12:19.415Z,12.10
2023-04-15T09:13:02.119Z,12.00
2023-04-15T09:13:44.529Z,11.90
2023-04-15T09:14:28.622Z,12.40
2023-04-15T09:15:15.392Z,12.30
2023-04-15T09:16:00.336Z,12.30
2023-04-15T09:17:02.625Z,12.30
2023-04-15T09:17:45.723Z,12.40
2023-04-15T09:18:29.872Z,11.90
2023-04-15T09:19:33.560Z,12.10
2023-04-15T09:20:16.943Z,12.10
2023-04-15T09:21:18.455Z,11.00
2023-04-15T09:22:00.666Z,12.20
2023-04-15T09:22:45.094Z,12.40
2023-04-15T09:23:27.550Z,12.40
2023-04-15T09:24:09.426Z,12.50
2023-04-15T09:24:51.588Z,12.60
2023-04-15T09:25:34.970Z,12.30
2023-04-15T09:26:17.372Z,12.50
2023-04-15T09:26:59.370Z,12.30
2023-04-15T09:27:50.965Z,12.50
2023-04-15T09:28:35.301Z,12.40
2023-04-15T09:29:18.568Z,12.20
2023-04-15T09:30:00.383Z,12.20
2023-04-15T09:30:49.181Z,12.10
2023-04-15T09:31:33.055Z,12.10
2023-04-15T09:32:18.135Z,12.10
2023-04-15T09:33:11.056Z,12.20
2023-04-15T09:33:57.407Z,12.20
2023-04-15T09:35:22.754Z,12.50
2023-04-15T09:36:08.380Z,12.60
2023-04-15T09:36:57.787Z,12.80